Time;durP1;ratioP1;P1;durP2;ratioP2;P2;SDS_P1;SDS_P2;PMS_P1;PMS_P2;Temp;Humidity;BMP_temperature;BMP_pressure;BME280_temperature;BME280_humidity;BME280_pressure;Samples;Min_cycle;Max_cycle;Signal;HPM_P1;HPM_P2
2022/03/06 05:00:15;;;;;;;3.27;3.10;;;1.70;99.90;;;;;;5947158;23;20279;31
2022/03/06 05:02:41;;;;;;;3.40;3.30;;;1.70;99.90;;;;;;4903543;29;20314;-67
2022/03/06 05:05:09;;;;;;;3.92;3.83;;;1.70;99.90;;;;;;4908756;29;20334;-68
2022/03/06 05:07:36;;;;;;;5.85;4.18;;;1.70;99.90;;;;;;4913518;29;20270;-68
2022/03/06 05:10:06;;;;;;;3.97;3.75;;;1.70;99.90;;;;;;4912478;29;20214;-67
2022/03/06 05:12:33;;;;;;;4.07;3.78;;;1.70;99.90;;;;;;4913469;29;20664;-67
2022/03/06 05:15:00;;;;;;;3.05;2.85;;;1.70;99.90;;;;;;4912662;29;20211;-67
2022/03/06 05:17:28;;;;;;;3.95;3.65;;;1.70;99.90;;;;;;4913226;29;20234;-68
2022/03/06 05:19:54;;;;;;;3.40;3.20;;;1.70;99.90;;;;;;4912321;29;20323;-67
2022/03/06 05:22:21;;;;;;;4.00;3.80;;;1.70;99.90;;;;;;4912730;29;20301;-67
2022/03/06 05:24:48;;;;;;;5.10;3.50;;;1.70;99.90;;;;;;4901322;29;20223;-67
2022/03/06 05:27:14;;;;;;;4.47;4.13;;;1.80;99.90;;;;;;4894149;29;20228;-67
2022/03/06 05:29:41;;;;;;;4.40;4.00;;;1.70;99.90;;;;;;4904087;29;21059;-67
2022/03/06 05:32:08;;;;;;;3.45;3.25;;;1.80;99.90;;;;;;4913770;29;20242;-67
2022/03/06 05:34:36;;;;;;;3.80;3.60;;;1.80;99.90;;;;;;4903177;29;20211;-67
2022/03/06 05:37:03;;;;;;;4.10;3.75;;;1.70;99.90;;;;;;4902665;29;20215;-67
2022/03/06 05:39:30;;;;;;;4.28;3.92;;;1.80;99.90;;;;;;4916336;29;20262;-67
2022/03/06 05:41:56;;;;;;;3.45;3.35;;;1.80;99.90;;;;;;4909717;29;20229;-67
2022/03/06 05:44:24;;;;;;;3.58;3.38;;;1.80;99.90;;;;;;4903785;29;20689;-67
2022/03/06 05:46:51;;;;;;;4.88;3.88;;;1.80;99.90;;;;;;4908614;29;20202;-67
2022/03/06 05:49:18;;;;;;;4.10;3.85;;;1.80;99.90;;;;;;4913907;29;20581;-68
2022/03/06 05:51:46;;;;;;;4.45;3.33;;;1.90;99.90;;;;;;4898174;29;20231;-68
2022/03/06 05:54:12;;;;;;;3.30;3.15;;;1.80;99.90;;;;;;4898945;29;20211;-68
2022/03/06 05:56:40;;;;;;;3.88;3.67;;;1.80;99.90;;;;;;4917048;29;20706;-67
2022/03/06 05:59:07;;;;;;;3.80;3.50;;;1.80;99.90;;;;;;4916680;29;20214;-67
2022/03/06 06:01:34;;;;;;;3.80;3.65;;;1.80;99.90;;;;;;4914996;29;20250;-67
2022/03/06 06:04:02;;;;;;;3.47;3.30;;;1.70;99.90;;;;;;4897372;29;20211;-67
2022/03/06 06:06:28;;;;;;;4.57;3.53;;;1.80;99.90;;;;;;4913466;29;20227;-68
2022/03/06 06:08:57;;;;;;;5.47;3.95;;;1.80;99.90;;;;;;4902791;29;20689;-68
2022/03/06 06:11:24;;;;;;;3.10;2.92;;;1.80;99.90;;;;;;4914305;29;20571;-67
2022/03/06 06:13:50;;;;;;;4.82;3.63;;;1.80;99.90;;;;;;4916431;29;20210;-67
2022/03/06 06:16:17;;;;;;;3.97;3.75;;;1.80;99.90;;;;;;4914115;29;20623;-67
2022/03/06 06:18:44;;;;;;;3.35;3.20;;;1.80;99.90;;;;;;4912919;29;20223;-67
2022/03/06 06:21:11;;;;;;;3.88;3.75;;;1.90;99.90;;;;;;4901315;29;20723;-67
2022/03/06 06:23:38;;;;;;;3.95;3.72;;;1.90;99.90;;;;;;4907346;29;20290;-67
2022/03/06 06:26:06;;;;;;;7.22;3.95;;;1.90;99.90;;;;;;4897532;29;20230;-67
2022/03/06 06:28:32;;;;;;;3.80;3.50;;;1.90;99.90;;;;;;4907458;29;20653;-67
2022/03/06 06:30:59;;;;;;;5.78;3.72;;;1.90;99.90;;;;;;4901730;29;20226;-68
2022/03/06 06:33:27;;;;;;;6.22;3.88;;;1.90;99.90;;;;;;4899642;29;20210;-67
2022/03/06 06:35:54;;;;;;;4.65;3.88;;;1.90;99.90;;;;;;4897293;29;20211;-69
2022/03/06 06:38:21;;;;;;;5.70;4.00;;;1.90;99.90;;;;;;4898348;29;20223;-68
2022/03/06 06:40:48;;;;;;;3.72;3.53;;;1.90;99.90;;;;;;4915281;29;20289;-68
2022/03/06 06:43:16;;;;;;;3.65;3.47;;;2.00;99.90;;;;;;4916171;29;20207;-68
2022/03/06 06:45:43;;;;;;;3.60;3.33;;;2.00;99.90;;;;;;4915396;29;20238;-68
2022/03/06 06:48:10;;;;;;;3.45;3.20;;;2.00;99.90;;;;;;4908895;29;20214;-68
2022/03/06 06:50:36;;;;;;;3.20;2.97;;;2.00;99.90;;;;;;4909001;29;20253;-68
2022/03/06 06:53:04;;;;;;;4.95;3.55;;;2.00;99.90;;;;;;4915643;29;20203;-68
2022/03/06 06:55:30;;;;;;;3.53;3.33;;;2.00;99.90;;;;;;4915950;29;20214;-69
2022/03/06 06:57:57;;;;;;;4.85;4.45;;;2.00;99.90;;;;;;4912026;29;20208;-68
2022/03/06 07:00:25;;;;;;;3.10;3.05;;;2.10;99.90;;;;;;4897575;29;20269;-68
2022/03/06 07:02:52;;;;;;;3.47;3.15;;;2.10;99.90;;;;;;4910574;29;20211;-69
2022/03/06 07:05:19;;;;;;;3.28;3.08;;;2.10;99.90;;;;;;4896543;29;20676;-69
2022/03/06 07:07:46;;;;;;;3.42;3.22;;;2.10;99.90;;;;;;4915647;29;20214;-69
2022/03/06 07:10:12;;;;;;;4.20;4.00;;;2.10;99.90;;;;;;4914930;29;20583;-69
2022/03/06 07:12:44;;;;;;;3.67;3.58;;;2.20;99.90;;;;;;4916066;29;20215;-69
2022/03/06 07:15:13;;;;;;;3.20;2.95;;;2.20;99.90;;;;;;4906039;29;20211;-69
2022/03/06 07:17:41;;;;;;;4.32;3.75;;;2.20;99.90;;;;;;4905238;29;20214;-68
2022/03/06 07:20:09;;;;;;;3.58;3.38;;;2.20;99.90;;;;;;4911568;29;20234;-68
2022/03/06 07:22:36;;;;;;;3.25;3.05;;;2.20;99.90;;;;;;4904419;29;20314;-68
2022/03/06 07:25:04;;;;;;;3.58;3.47;;;2.20;99.90;;;;;;4909193;29;20241;-68
2022/03/06 07:27:31;;;;;;;4.15;3.65;;;2.20;99.90;;;;;;4906265;29;20215;-68
2022/03/06 07:29:58;;;;;;;3.75;3.55;;;2.20;99.90;;;;;;4896903;29;20649;-68
2022/03/06 07:32:25;;;;;;;3.70;3.50;;;2.20;99.90;;;;;;4901296;29;20554;-68
2022/03/06 07:34:53;;;;;;;4.18;3.85;;;2.20;99.90;;;;;;4914741;29;20210;-68
2022/03/06 07:37:20;;;;;;;3.30;3.10;;;2.30;99.90;;;;;;4900328;29;20206;-68
2022/03/06 07:39:46;;;;;;;3.83;3.55;;;2.30;99.90;;;;;;4898750;29;20249;-68
2022/03/06 07:42:13;;;;;;;6.88;3.40;;;2.30;99.90;;;;;;4924985;29;20246;-69
2022/03/06 07:44:40;;;;;;;3.80;3.60;;;2.30;99.90;;;;;;4929943;29;20294;-68
2022/03/06 07:47:07;;;;;;;3.33;3.13;;;2.30;99.90;;;;;;4930587;29;20233;-68
2022/03/06 07:49:34;;;;;;;4.82;3.72;;;2.30;99.90;;;;;;4911522;29;20275;-68
2022/03/06 07:52:02;;;;;;;4.50;3.40;;;2.40;99.90;;;;;;4899697;29;20780;-68
2022/03/06 07:54:29;;;;;;;4.60;3.65;;;2.40;99.90;;;;;;4909949;29;20199;-68
2022/03/06 07:56:56;;;;;;;5.05;4.30;;;2.40;99.90;;;;;;4920389;29;20199;-68
2022/03/06 07:59:25;;;;;;;3.70;3.40;;;2.50;99.90;;;;;;4911940;29;20226;-68
2022/03/06 08:01:52;;;;;;;4.68;4.28;;;2.50;99.90;;;;;;4896711;29;20235;-68
2022/03/06 08:04:19;;;;;;;4.88;4.43;;;2.50;99.90;;;;;;4915458;29;20222;-68
2022/03/06 08:06:46;;;;;;;3.25;3.05;;;2.50;99.90;;;;;;4914173;29;20618;-68
2022/03/06 08:09:14;;;;;;;3.92;3.38;;;2.50;99.90;;;;;;4907892;29;20232;-70
2022/03/06 08:11:41;;;;;;;3.92;3.83;;;2.50;99.90;;;;;;4906452;29;20285;-68
2022/03/06 08:14:07;;;;;;;3.42;3.22;;;2.50;99.90;;;;;;4915265;29;20600;-69
2022/03/06 08:16:34;;;;;;;4.72;4.30;;;2.50;99.90;;;;;;4914398;29;20226;-70
2022/03/06 08:19:01;;;;;;;3.58;3.30;;;2.60;99.90;;;;;;4914792;29;20221;-68
2022/03/06 08:21:28;;;;;;;4.00;3.65;;;2.50;99.90;;;;;;4912029;29;20308;-69
2022/03/06 08:23:55;;;;;;;4.60;4.32;;;2.50;99.90;;;;;;4913983;29;20203;-69
2022/03/06 08:26:24;;;;;;;4.03;3.55;;;2.50;99.90;;;;;;4910842;29;20314;-69
2022/03/06 08:28:51;;;;;;;3.50;3.22;;;2.50;99.90;;;;;;4913223;29;20249;-69
2022/03/06 08:31:17;;;;;;;3.15;3.05;;;2.50;99.90;;;;;;4911543;29;20241;-69
2022/03/06 08:33:45;;;;;;;4.50;3.33;;;2.50;99.90;;;;;;4900494;29;20218;-68
2022/03/06 08:36:12;;;;;;;3.33;3.10;;;2.50;99.90;;;;;;4914084;29;20715;-69
2022/03/06 08:38:38;;;;;;;3.97;3.00;;;2.50;99.90;;;;;;4910353;29;20214;-68
2022/03/06 08:41:05;;;;;;;3.85;3.55;;;2.50;99.90;;;;;;4900738;29;20223;-69
2022/03/06 08:43:33;;;;;;;3.80;3.58;;;2.50;99.90;;;;;;4905089;29;20211;-69
2022/03/06 08:46:02;;;;;;;4.03;3.78;;;2.60;99.90;;;;;;4913304;29;20241;-68
2022/03/06 08:48:28;;;;;;;4.03;3.83;;;2.70;99.90;;;;;;4911838;29;20219;-67
2022/03/06 08:50:55;;;;;;;4.22;3.72;;;2.70;99.90;;;;;;4907781;29;20236;-69
2022/03/06 08:53:22;;;;;;;3.72;3.42;;;2.70;99.90;;;;;;4913350;29;20286;-69
2022/03/06 08:55:49;;;;;;;3.58;3.45;;;2.80;99.90;;;;;;4913129;29;20838;-69
2022/03/06 08:58:15;;;;;;;3.58;3.28;;;2.80;99.90;;;;;;4899050;29;20623;-69
2022/03/06 09:00:43;;;;;;;3.60;3.28;;;2.70;99.90;;;;;;4901381;29;20241;-70
2022/03/06 09:03:10;;;;;;;4.30;3.30;;;2.80;99.90;;;;;;4914064;29;20206;-68
2022/03/06 09:05:40;;;;;;;4.97;3.55;;;2.80;99.90;;;;;;4912682;29;20218;-68
2022/03/06 09:08:09;;;;;;;3.38;3.17;;;2.70;99.90;;;;;;4914147;29;20206;-68
2022/03/06 09:10:35;;;;;;;3.67;3.47;;;2.80;99.90;;;;;;4907883;29;20230;-69
2022/03/06 09:13:02;;;;;;;4.80;4.22;;;2.80;99.90;;;;;;4912930;29;20210;-67
2022/03/06 09:15:29;;;;;;;3.00;2.90;;;2.90;99.90;;;;;;4902790;29;20617;-67
2022/03/06 09:17:57;;;;;;;3.72;3.42;;;2.90;99.90;;;;;;4917245;29;20262;-68
2022/03/06 09:20:25;;;;;;;3.72;3.42;;;3.00;99.90;;;;;;4913100;29;20217;-67
2022/03/06 09:22:52;;;;;;;5.07;3.55;;;3.00;99.90;;;;;;4897977;29;20234;-70
2022/03/06 09:25:19;;;;;;;3.72;3.53;;;3.10;99.90;;;;;;4910195;29;20606;-69
2022/03/06 09:27:46;;;;;;;4.53;4.10;;;3.10;99.90;;;;;;4916995;29;20223;-68
2022/03/06 09:30:14;;;;;;;4.30;4.07;;;3.20;99.90;;;;;;4907488;29;20204;-68
2022/03/06 09:32:41;;;;;;;3.78;3.58;;;3.30;99.90;;;;;;4909726;29;20282;-68
2022/03/06 09:35:10;;;;;;;3.22;3.00;;;3.40;99.90;;;;;;4916267;29;20218;-68
2022/03/06 09:37:37;;;;;;;3.15;3.00;;;3.50;99.90;;;;;;4917759;29;20291;-69
2022/03/06 09:40:05;;;;;;;8.02;3.92;;;3.60;99.90;;;;;;4917147;29;20226;-69
2022/03/06 09:42:32;;;;;;;4.70;4.20;;;3.60;99.90;;;;;;4917987;29;20496;-69
2022/03/06 09:45:05;;;;;;;3.35;3.15;;;3.70;99.90;;;;;;4909649;29;20359;-68
2022/03/06 09:47:32;;;;;;;3.80;3.60;;;3.70;99.90;;;;;;4914624;29;20262;-68
2022/03/06 09:49:59;;;;;;;3.20;3.00;;;3.60;99.90;;;;;;4910092;29;20238;-68
2022/03/06 09:52:27;;;;;;;3.40;3.20;;;3.60;99.90;;;;;;4922796;29;20237;-69
2022/03/06 09:54:54;;;;;;;3.72;3.45;;;3.70;99.90;;;;;;4931730;29;20629;-69
2022/03/06 09:57:21;;;;;;;4.15;3.20;;;3.80;99.90;;;;;;4938463;29;20210;-69
2022/03/06 09:59:48;;;;;;;3.80;3.60;;;3.80;99.90;;;;;;4930941;29;20612;-69
2022/03/06 10:02:15;;;;;;;3.50;3.28;;;3.90;99.90;;;;;;4939932;29;20262;-69
2022/03/06 10:04:42;;;;;;;3.05;2.97;;;3.90;99.90;;;;;;4932518;29;20207;-68
2022/03/06 10:07:11;;;;;;;9.00;4.40;;;3.90;99.90;;;;;;4915632;29;20285;-68
2022/03/06 10:09:45;;;;;;;4.38;3.65;;;3.80;99.90;;;;;;4906720;29;20214;-67
2022/03/06 10:12:20;;;;;;;3.97;3.67;;;3.90;99.90;;;;;;4902545;29;20223;-68
2022/03/06 10:14:48;;;;;;;3.53;3.33;;;4.10;99.90;;;;;;4898466;29;20206;-67
2022/03/06 10:17:17;;;;;;;2.80;2.70;;;4.30;99.90;;;;;;4915413;29;20668;-69
2022/03/06 10:19:54;;;;;;;2.50;2.40;;;4.40;99.90;;;;;;4915422;29;20209;-68
2022/03/06 10:22:23;;;;;;;1.80;1.80;;;4.60;99.90;;;;;;4916201;29;20226;-68
2022/03/06 10:24:53;;;;;;;2.22;2.13;;;4.60;99.90;;;;;;4911896;29;20319;-68
2022/03/06 10:27:49;;;;;;;2.55;2.45;;;4.60;99.90;;;;;;4898093;29;20231;-67
2022/03/06 10:30:25;;;;;;;4.93;2.20;;;4.70;99.90;;;;;;4897201;29;20595;-67
2022/03/06 10:32:52;;;;;;;2.88;2.65;;;4.70;99.90;;;;;;4908543;29;20202;-67
2022/03/06 10:35:19;;;;;;;2.90;2.78;;;4.60;99.90;;;;;;4916693;29;20211;-68
2022/03/06 10:37:46;;;;;;;3.00;2.90;;;4.70;99.90;;;;;;4914125;29;20603;-67
2022/03/06 10:40:14;;;;;;;5.30;4.90;;;4.70;99.90;;;;;;4913909;29;20210;-68
2022/03/06 10:42:41;;;;;;;2.55;2.55;;;4.60;99.90;;;;;;4916837;29;20284;-68
2022/03/06 10:45:23;;;;;;;2.70;2.65;;;4.50;99.90;;;;;;4914516;29;20308;-68
2022/03/06 10:47:50;;;;;;;2.63;2.53;;;4.50;99.90;;;;;;4914251;29;20305;-68
2022/03/06 10:50:22;;;;;;;3.22;3.13;;;4.50;99.90;;;;;;4911536;29;20275;-68
2022/03/06 10:52:53;;;;;;;2.80;2.60;;;4.40;99.90;;;;;;4915883;29;20206;-67
2022/03/06 10:55:32;;;;;;;2.80;2.65;;;4.40;99.90;;;;;;4915017;29;20617;-67
2022/03/06 10:57:59;;;;;;;4.43;4.03;;;4.40;99.90;;;;;;4916385;29;20210;-68
2022/03/06 11:00:28;;;;;;;2.85;2.78;;;4.40;99.90;;;;;;4903112;29;20328;-67
2022/03/06 11:02:56;;;;;;;2.55;2.40;;;4.40;99.90;;;;;;4924827;29;20219;-67
2022/03/06 11:05:24;;;;;;;2.60;2.60;;;4.40;99.90;;;;;;4908977;29;20719;-68
2022/03/06 11:07:52;;;;;;;3.72;3.47;;;4.40;99.90;;;;;;4926540;29;20229;-68
2022/03/06 11:10:19;;;;;;;5.53;5.03;;;4.50;99.90;;;;;;4914865;29;20253;-68
2022/03/06 11:12:47;;;;;;;4.03;2.97;;;4.60;99.90;;;;;;4911860;29;20701;-68
2022/03/06 11:15:13;;;;;;;3.17;3.08;;;4.70;99.90;;;;;;4909372;29;20679;-69
2022/03/06 11:17:42;;;;;;;3.10;2.97;;;4.70;99.90;;;;;;4915308;29;20214;-68
2022/03/06 11:20:10;;;;;;;2.67;2.53;;;4.70;99.90;;;;;;4916055;29;20207;-68
2022/03/06 11:22:43;;;;;;;3.05;2.88;;;4.70;99.90;;;;;;4916533;29;20234;-68
2022/03/06 11:25:17;;;;;;;3.38;3.15;;;4.60;99.90;;;;;;4903831;29;20215;-69
2022/03/06 11:27:50;;;;;;;3.22;3.13;;;4.70;99.90;;;;;;4915120;29;20225;-69
2022/03/06 11:30:20;;;;;;;3.70;3.50;;;4.70;99.90;;;;;;4912050;29;20199;-69
2022/03/06 11:33:00;;;;;;;2.65;2.65;;;4.80;99.90;;;;;;4914096;29;20348;-70
2022/03/06 11:35:31;;;;;;;3.55;3.30;;;4.90;99.90;;;;;;4914770;29;20289;-68
2022/03/06 11:37:59;;;;;;;3.17;3.05;;;4.90;99.90;;;;;;4906985;29;20697;-67
2022/03/06 11:40:38;;;;;;;2.40;2.28;;;5.00;99.90;;;;;;4915143;29;20211;-68
2022/03/06 11:43:06;;;;;;;3.10;2.90;;;5.10;99.90;;;;;;4906790;29;20195;-69
2022/03/06 11:45:47;;;;;;;5.35;3.58;;;5.20;99.90;;;;;;4903544;29;20522;-69
2022/03/06 11:48:24;;;;;;;3.45;3.35;;;5.30;99.90;;;;;;4902481;29;20289;-68
2022/03/06 11:51:27;;;;;;;4.10;3.80;;;5.40;99.90;;;;;;4912933;29;20474;-69
2022/03/06 11:53:56;;;;;;;3.70;3.53;;;5.50;99.90;;;;;;4900165;29;20467;-69
2022/03/06 11:56:54;;;;;;;2.90;2.80;;;5.30;99.90;;;;;;4909472;29;20235;-69
2022/03/06 11:59:33;;;;;;;4.93;3.42;;;5.30;99.90;;;;;;4902328;29;20208;-68
2022/03/06 12:02:05;;;;;;;3.17;2.97;;;5.20;99.90;;;;;;4901125;29;20317;-68
2022/03/06 12:04:35;;;;;;;3.67;3.47;;;5.00;99.90;;;;;;4913419;29;20877;-69
2022/03/06 12:07:04;;;;;;;3.38;3.22;;;4.90;99.90;;;;;;4914962;29;20215;-68
2022/03/06 12:09:32;;;;;;;3.45;3.25;;;4.90;99.90;;;;;;4914247;29;20318;-69
2022/03/06 12:12:01;;;;;;;3.03;2.83;;;5.00;99.90;;;;;;4917925;29;20222;-69
2022/03/06 12:14:31;;;;;;;3.33;3.22;;;5.10;99.90;;;;;;4932311;29;20210;-68
2022/03/06 12:17:21;;;;;;;3.17;3.08;;;5.30;99.90;;;;;;4922428;29;20314;-68
2022/03/06 12:20:18;;;;;;;3.13;3.03;;;5.40;99.90;;;;;;4894610;29;20219;-68
2022/03/06 12:22:47;;;;;;;2.88;2.88;;;5.50;99.90;;;;;;4895890;29;20293;-68
2022/03/06 12:25:32;;;;;;;3.25;3.15;;;5.50;99.90;;;;;;4895754;29;20580;-68
2022/03/06 12:28:18;;;;;;;4.30;3.60;;;5.50;99.90;;;;;;4896307;29;20219;-68
2022/03/06 12:30:45;;;;;;;3.13;2.80;;;5.50;99.90;;;;;;4915326;29;20568;-68
2022/03/06 12:33:39;;;;;;;4.00;3.60;;;5.50;99.90;;;;;;4918794;29;20269;-69
2022/03/06 12:36:13;;;;;;;2.70;2.60;;;5.40;99.90;;;;;;4915271;29;20190;-69
2022/03/06 12:38:39;;;;;;;3.83;3.53;;;5.30;99.90;;;;;;4914753;29;20195;-68
2022/03/06 12:41:06;;;;;;;3.10;3.00;;;5.20;99.90;;;;;;4911241;29;20234;-68
2022/03/06 12:43:34;;;;;;;2.85;2.75;;;5.20;99.90;;;;;;4932370;29;20214;-68
2022/03/06 12:46:01;;;;;;;2.90;2.80;;;5.30;99.90;;;;;;4921733;29;20289;-68
2022/03/06 12:48:29;;;;;;;3.05;2.95;;;5.40;99.90;;;;;;4924435;29;20229;-68
2022/03/06 12:50:56;;;;;;;4.40;3.25;;;5.70;99.90;;;;;;4927756;29;20596;-69
2022/03/06 12:53:24;;;;;;;4.38;4.05;;;6.00;99.90;;;;;;4914485;29;20210;-68
2022/03/06 12:55:57;;;;;;;3.60;3.40;;;6.10;99.90;;;;;;4913786;29;20210;-68
2022/03/06 12:58:37;;;;;;;3.40;3.30;;;6.10;99.90;;;;;;4905709;29;20286;-68
2022/03/06 13:01:08;;;;;;;3.47;3.17;;;5.90;99.90;;;;;;4894342;29;20744;-68
2022/03/06 13:03:35;;;;;;;3.10;2.90;;;5.80;99.90;;;;;;4894079;29;20245;-68
2022/03/06 13:06:13;;;;;;;3.58;3.47;;;5.80;99.90;;;;;;4894765;29;20208;-68
2022/03/06 13:08:42;;;;;;;4.15;3.88;;;5.80;99.90;;;;;;4894660;29;20263;-68
2022/03/06 13:11:09;;;;;;;2.92;2.92;;;6.00;99.90;;;;;;4894400;29;20230;-68
2022/03/06 13:13:38;;;;;;;4.70;3.80;;;6.10;99.90;;;;;;4895369;29;20211;-69
2022/03/06 13:16:06;;;;;;;3.45;3.35;;;6.20;99.90;;;;;;4894731;29;20211;-69
2022/03/06 13:18:34;;;;;;;4.65;4.35;;;6.30;99.90;;;;;;4894770;29;20315;-68
2022/03/06 13:21:01;;;;;;;3.25;3.15;;;6.30;99.90;;;;;;4894293;29;20235;-69
2022/03/06 13:23:27;;;;;;;3.10;3.00;;;6.20;99.90;;;;;;4894883;29;20210;-68
2022/03/06 13:25:55;;;;;;;2.55;2.55;;;6.10;99.90;;;;;;4909387;29;20231;-69
2022/03/06 13:28:22;;;;;;;2.85;2.75;;;6.10;99.90;;;;;;4913211;29;20624;-68
2022/03/06 13:30:49;;;;;;;2.95;2.95;;;6.00;99.90;;;;;;4906171;29;20235;-67
2022/03/06 13:33:20;;;;;;;3.25;3.15;;;6.00;99.90;;;;;;4901106;29;20657;-67
2022/03/06 13:35:47;;;;;;;3.67;3.47;;;6.20;99.90;;;;;;4914445;29;20226;-67
2022/03/06 13:38:22;;;;;;;3.88;3.70;;;6.20;99.90;;;;;;4916254;29;20262;-67
2022/03/06 13:40:51;;;;;;;3.78;3.50;;;6.20;99.90;;;;;;4913249;29;20230;-68
2022/03/06 13:43:33;;;;;;;3.45;3.25;;;6.10;99.90;;;;;;4909070;29;20203;-68
2022/03/06 13:46:00;;;;;;;3.78;3.47;;;6.20;99.90;;;;;;4914295;29;20289;-69
2022/03/06 13:48:30;;;;;;;3.80;3.50;;;6.10;99.90;;;;;;4920816;29;20234;-68
2022/03/06 13:50:57;;;;;;;4.10;3.80;;;6.20;99.90;;;;;;4909149;29;20596;-68
2022/03/06 13:53:24;;;;;;;3.67;3.38;;;6.20;99.90;;;;;;4905769;29;20259;-69
2022/03/06 13:55:54;;;;;;;3.53;3.42;;;6.30;99.90;;;;;;4912603;29;20294;-68
2022/03/06 13:58:23;;;;;;;3.22;3.00;;;6.20;99.90;;;;;;4934066;29;20234;-68
2022/03/06 14:00:53;;;;;;;3.72;3.42;;;6.20;99.90;;;;;;4920321;29;20253;-69
2022/03/06 14:03:26;;;;;;;3.50;3.20;;;6.20;99.90;;;;;;4921972;29;20217;-69
2022/03/06 14:05:55;;;;;;;3.90;3.70;;;6.20;99.90;;;;;;4916975;29;20651;-69
2022/03/06 14:08:24;;;;;;;4.00;3.80;;;6.20;99.90;;;;;;4908837;29;20632;-70
2022/03/06 14:10:55;;;;;;;3.60;3.50;;;6.20;99.90;;;;;;4909341;29;20591;-69
2022/03/06 14:13:30;;;;;;;3.45;2.78;;;6.20;99.90;;;;;;4913537;29;20238;-68
2022/03/06 14:15:59;;;;;;;3.75;3.55;;;6.10;99.90;;;;;;4905554;29;20218;-67
2022/03/06 14:18:37;;;;;;;3.38;2.47;;;6.10;99.90;;;;;;4915474;29;20290;-67
2022/03/06 14:21:09;;;;;;;3.78;3.45;;;6.00;99.90;;;;;;4918396;29;20237;-67
2022/03/06 14:23:36;;;;;;;3.25;3.15;;;5.90;99.90;;;;;;4924126;29;20261;-68
2022/03/06 14:26:03;;;;;;;3.40;3.30;;;5.90;99.90;;;;;;4929543;29;20214;-68
2022/03/06 14:28:31;;;;;;;3.47;3.20;;;6.00;99.90;;;;;;4903052;29;20608;-67
2022/03/06 14:30:58;;;;;;;3.30;3.08;;;5.90;99.90;;;;;;4899350;29;20576;-67
2022/03/06 14:33:25;;;;;;;3.38;3.15;;;6.00;99.90;;;;;;4899385;29;20661;-67
2022/03/06 14:35:51;;;;;;;4.13;3.75;;;5.90;99.90;;;;;;4915927;29;20210;-67
2022/03/06 14:38:18;;;;;;;4.50;3.58;;;5.90;99.90;;;;;;4914521;29;20206;-67
2022/03/06 14:40:45;;;;;;;3.72;3.55;;;5.90;99.90;;;;;;4939344;29;20223;-68
2022/03/06 14:43:11;;;;;;;3.30;3.10;;;5.80;99.90;;;;;;4935252;29;20221;-68
2022/03/06 14:45:39;;;;;;;3.30;3.20;;;5.80;99.90;;;;;;4938599;29;20270;-69
2022/03/06 14:48:06;;;;;;;3.60;3.40;;;5.80;99.90;;;;;;4939553;29;20298;-69
2022/03/06 14:50:33;;;;;;;3.20;3.10;;;5.90;99.90;;;;;;4940505;29;20199;-69
2022/03/06 14:52:59;;;;;;;3.33;3.13;;;6.00;99.90;;;;;;4934830;29;20217;-70
2022/03/06 14:55:26;;;;;;;3.33;3.15;;;6.00;99.90;;;;;;4917224;29;20210;-68
2022/03/06 14:57:53;;;;;;;3.78;3.60;;;5.90;99.90;;;;;;4907603;29;20263;-69
2022/03/06 15:00:19;;;;;;;4.30;3.90;;;5.80;99.90;;;;;;4901128;29;20636;-69
2022/03/06 15:02:47;;;;;;;2.65;2.58;;;5.90;99.90;;;;;;4898660;29;20282;-68
2022/03/06 15:05:14;;;;;;;2.95;2.85;;;6.00;99.90;;;;;;4912083;29;20207;-68
2022/03/06 15:07:41;;;;;;;3.20;3.05;;;5.90;99.90;;;;;;4914906;29;20233;-68
2022/03/06 15:10:08;;;;;;;3.40;3.25;;;5.80;99.90;;;;;;4914233;29;20289;-69
2022/03/06 15:12:34;;;;;;;3.35;3.15;;;5.80;99.90;;;;;;4914695;29;20239;-69
2022/03/06 15:15:01;;;;;;;3.00;2.80;;;5.80;99.90;;;;;;4914774;29;20203;-68
2022/03/06 15:17:28;;;;;;;4.15;3.78;;;5.80;99.90;;;;;;4902222;29;20992;-69
2022/03/06 15:19:56;;;;;;;4.18;2.97;;;5.80;99.90;;;;;;4903970;29;20221;-69
2022/03/06 15:22:23;;;;;;;2.70;2.70;;;5.80;99.90;;;;;;4903589;29;20279;-69
2022/03/06 15:24:49;;;;;;;4.30;2.88;;;5.70;99.90;;;;;;4903259;29;20210;-69
2022/03/06 15:27:16;;;;;;;3.55;3.42;;;5.70;99.90;;;;;;4904943;29;20211;-69
2022/03/06 15:29:43;;;;;;;3.95;3.50;;;5.60;99.90;;;;;;4899072;29;20884;-69
2022/03/06 15:32:09;;;;;;;9.02;5.70;;;5.60;99.90;;;;;;4896596;29;20239;-69
2022/03/06 15:34:37;;;;;;;5.20;4.25;;;5.60;99.90;;;;;;4898886;29;20202;-69
2022/03/06 15:37:06;;;;;;;4.28;4.07;;;5.60;99.90;;;;;;4912735;29;20217;-70
2022/03/06 15:39:32;;;;;;;3.80;3.35;;;5.60;99.90;;;;;;4913346;29;20298;-68
2022/03/06 15:41:59;;;;;;;4.88;4.47;;;5.60;99.90;;;;;;4908818;29;20586;-68
2022/03/06 15:44:26;;;;;;;7.15;6.43;;;5.60;99.90;;;;;;4934370;29;20214;-69
2022/03/06 15:46:53;;;;;;;5.40;4.90;;;5.50;99.90;;;;;;4937424;29;20210;-69
2022/03/06 15:49:20;;;;;;;4.35;3.92;;;5.50;99.90;;;;;;4929959;29;20226;-69
2022/03/06 15:51:47;;;;;;;3.22;3.13;;;5.50;99.90;;;;;;4910215;29;20233;-69
2022/03/06 15:54:15;;;;;;;9.43;6.35;;;5.50;99.90;;;;;;4909175;29;20212;-68
2022/03/06 15:56:42;;;;;;;8.75;6.70;;;5.50;99.90;;;;;;4916543;29;20209;-68
2022/03/06 15:59:10;;;;;;;5.65;5.25;;;5.50;99.90;;;;;;4912430;29;20215;-68
2022/03/06 16:01:37;;;;;;;4.47;4.15;;;5.50;99.90;;;;;;4913709;29;20227;-68
2022/03/06 16:04:04;;;;;;;9.55;7.07;;;5.50;99.90;;;;;;4915731;29;20210;-68
2022/03/06 16:06:31;;;;;;;6.35;5.60;;;5.40;99.90;;;;;;4916418;29;20668;-68
2022/03/06 16:08:58;;;;;;;8.07;7.38;;;5.40;99.90;;;;;;4914323;29;20286;-67
2022/03/06 16:11:26;;;;;;;3.30;3.10;;;5.40;99.90;;;;;;4914078;29;20290;-68
2022/03/06 16:13:53;;;;;;;4.25;3.95;;;5.40;99.90;;;;;;4914295;29;20221;-67
2022/03/06 16:16:20;;;;;;;7.32;4.90;;;5.30;99.90;;;;;;4913561;29;20268;-67
2022/03/06 16:18:48;;;;;;;7.40;6.57;;;5.30;99.90;;;;;;4913673;29;20213;-68
2022/03/06 16:21:14;;;;;;;5.85;5.13;;;5.30;99.90;;;;;;4912423;29;20223;-68
2022/03/06 16:23:41;;;;;;;9.65;6.15;;;5.20;99.90;;;;;;4926035;29;20203;-68
2022/03/06 16:26:09;;;;;;;6.70;5.05;;;5.20;99.90;;;;;;4913550;29;20210;-68
2022/03/06 16:28:38;;;;;;;5.97;4.60;;;5.20;99.90;;;;;;4909802;29;20285;-67
2022/03/06 16:31:06;;;;;;;7.53;5.50;;;5.20;99.90;;;;;;4909626;29;20716;-67
2022/03/06 16:33:33;;;;;;;4.60;4.20;;;5.20;99.90;;;;;;4913094;29;20563;-67
2022/03/06 16:36:00;;;;;;;4.65;4.35;;;5.10;99.90;;;;;;4908046;29;20215;-67
2022/03/06 16:38:29;;;;;;;5.32;5.00;;;5.10;99.90;;;;;;4919928;29;20210;-67
2022/03/06 16:40:59;;;;;;;4.63;4.22;;;5.00;99.90;;;;;;4905676;29;20242;-67
2022/03/06 16:43:27;;;;;;;6.70;6.10;;;5.00;99.90;;;;;;4914239;29;20577;-67
2022/03/06 16:45:56;;;;;;;5.93;5.43;;;4.90;99.90;;;;;;4908165;29;20214;-68
2022/03/06 16:48:24;;;;;;;5.40;4.85;;;4.90;99.90;;;;;;4912750;29;20249;-67
2022/03/06 16:50:50;;;;;;;5.57;4.80;;;4.80;99.90;;;;;;4912035;29;20226;-67
2022/03/06 16:53:18;;;;;;;7.50;6.80;;;4.80;99.90;;;;;;4919041;29;20258;-67
2022/03/06 16:55:46;;;;;;;6.15;5.57;;;4.70;99.90;;;;;;4922777;29;20210;-67
2022/03/06 16:58:13;;;;;;;6.40;5.88;;;4.60;99.90;;;;;;4909094;29;20224;-67
2022/03/06 17:00:41;;;;;;;6.00;5.45;;;4.60;99.90;;;;;;4906843;29;20245;-68
2022/03/06 17:03:09;;;;;;;6.63;6.03;;;4.60;99.90;;;;;;4912644;29;20229;-67
2022/03/06 17:05:36;;;;;;;6.57;5.80;;;4.50;99.90;;;;;;4912265;29;20214;-67
2022/03/06 17:08:03;;;;;;;8.15;7.10;;;4.40;99.90;;;;;;4909669;29;20586;-68
2022/03/06 17:10:31;;;;;;;7.68;7.05;;;4.40;99.90;;;;;;4911109;29;20241;-67
2022/03/06 17:12:58;;;;;;;9.10;8.30;;;4.30;99.90;;;;;;4921062;29;20210;-67
2022/03/06 17:15:25;;;;;;;7.70;5.60;;;4.30;99.90;;;;;;4908369;29;20207;-67
2022/03/06 17:17:52;;;;;;;6.00;5.47;;;4.20;99.90;;;;;;4916122;29;20206;-68
2022/03/06 17:20:21;;;;;;;6.57;6.03;;;4.10;99.90;;;;;;4913471;29;20199;-68
2022/03/06 17:22:48;;;;;;;45.95;20.00;;;4.10;99.90;;;;;;4911689;29;20236;-67
2022/03/06 17:25:15;;;;;;;64.57;27.30;;;4.00;99.90;;;;;;4913187;29;20203;-68
2022/03/06 17:27:41;;;;;;;46.78;21.27;;;3.90;99.90;;;;;;4913925;29;20210;-68
2022/03/06 17:30:10;;;;;;;26.45;12.75;;;3.90;99.90;;;;;;4912465;29;20612;-68
2022/03/06 17:32:37;;;;;;;26.55;14.98;;;3.90;99.90;;;;;;4913721;29;20231;-69
2022/03/06 17:35:04;;;;;;;15.95;12.48;;;3.80;99.90;;;;;;4962617;23;20273;-71
2022/03/06 17:37:33;;;;;;;12.07;11.10;;;3.80;99.90;;;;;;4939380;29;20210;-71
2022/03/06 17:39:59;;;;;;;11.02;9.77;;;3.80;99.90;;;;;;4934012;29;20233;-73
2022/03/06 17:42:26;;;;;;;12.02;10.93;;;3.80;99.90;;;;;;4945140;29;20627;-71
2022/03/06 17:44:53;;;;;;;12.95;11.75;;;3.80;99.90;;;;;;4944341;28;20249;-71
2022/03/06 17:47:21;;;;;;;14.57;10.98;;;3.80;99.90;;;;;;4935483;29;20725;-70
2022/03/06 17:49:48;;;;;;;11.32;10.20;;;3.70;99.90;;;;;;4929775;29;20219;-71
2022/03/06 17:52:14;;;;;;;11.38;8.93;;;3.70;99.90;;;;;;4933711;29;20212;-70
2022/03/06 17:54:42;;;;;;;11.15;10.05;;;3.70;99.90;;;;;;4946618;28;20721;-71
2022/03/06 17:57:09;;;;;;;15.20;11.75;;;3.70;99.90;;;;;;4936800;29;20209;-71
2022/03/06 17:59:36;;;;;;;14.52;12.93;;;3.60;99.90;;;;;;4927703;29;20255;-71
2022/03/06 18:02:03;;;;;;;18.63;14.23;;;3.60;99.90;;;;;;4938465;29;20269;-71